Huvudsida
METAR-TAF:

METAR-TAF

Flygplatser :

Trapani-Birgi flygplats

Trapani, Italien

latitud: 37-55N, longitud: 012-30E, höjd: 7 m

Aktuellt väderrapport

Denna rapport gjordes för 48 minuter sedan, klockan 21:55 UTC
Vind 14 kt från syd/sydost
Temperatur 18°C
Fuktighet 88%
Tryck 1009 hPa
Sikt 10 km eller mer
Få moln på en höjd av 2000 ft

METAR: LICT 152155Z 16014KT 9999 FEW020 18/16 Q1009 RMK OVC BKN120 BKN200 VIS MIN 9999 WIND THR13 15012KT 110V180 BLU

Tid: 23:43 (22:43 UTC)

Väderprognos

Denna rapport gjordes för 2 timmar och 43 minuter sedan, klockan 20:00 UTC
Prognos gäller från 15 kl. 21 UTC till 16 kl. 06 UTC
Vind 15 kt från syd
Sikt 10 km eller mer
Få moln på en höjd av 2000 ft

TAF: LICT 152000Z 1521/1606 17015KT 9999 FEW020

Aktuella väderrapporter och prognoser från 4000 flygplatser (METAR- och TAF-rapporter).

De tillgängliga stationerna syns som gula och röda prickar på kartan.

För musen över prickarna för att se namnen på stationerna.

Klicka sedan för att få väderrapporter och prognoser.

För att ändra kartan: Klicka på de gröna knapparna med ett svart kors på för att zooma in; den gröna knappen med ett streck på för att zooma ut; eller på de gröna pilarna för angränsande kartor.


METAR-TAF: